sensor_id;sensor_type;location;lat;lon;timestamp;temperature;humidity
57753;DHT22;43583;53.132;6.574;2022-10-30T00:00:01;12.20;99.90
57753;DHT22;43583;53.132;6.574;2022-10-30T00:02:26;12.30;99.90
57753;DHT22;43583;53.132;6.574;2022-10-30T00:04:52;12.20;99.90
57753;DHT22;43583;53.132;6.574;2022-10-30T00:07:17;12.30;99.90
57753;DHT22;43583;53.132;6.574;2022-10-30T00:09:43;12.30;99.90
57753;DHT22;43583;53.132;6.574;2022-10-30T00:12:08;12.40;99.90
57753;DHT22;43583;53.132;6.574;2022-10-30T00:14:34;12.50;99.90
57753;DHT22;43583;53.132;6.574;2022-10-30T00:16:59;12.50;99.90
57753;DHT22;43583;53.132;6.574;2022-10-30T00:19:25;12.50;99.90
57753;DHT22;43583;53.132;6.574;2022-10-30T00:21:50;12.50;99.90
57753;DHT22;43583;53.132;6.574;2022-10-30T00:24:16;12.40;99.90
57753;DHT22;43583;53.132;6.574;2022-10-30T00:26:41;12.40;99.90
57753;DHT22;43583;53.132;6.574;2022-10-30T00:29:07;12.40;99.90
57753;DHT22;43583;53.132;6.574;2022-10-30T00:31:33;12.40;99.90
57753;DHT22;43583;53.132;6.574;2022-10-30T00:33:58;12.40;99.90
57753;DHT22;43583;53.132;6.574;2022-10-30T00:36:24;12.40;99.90
57753;DHT22;43583;53.132;6.574;2022-10-30T00:38:50;12.50;99.90
57753;DHT22;43583;53.132;6.574;2022-10-30T00:41:18;12.50;99.90
57753;DHT22;43583;53.132;6.574;2022-10-30T00:43:44;12.50;99.90
57753;DHT22;43583;53.132;6.574;2022-10-30T00:46:30;12.50;99.90
57753;DHT22;43583;53.132;6.574;2022-10-30T00:49:02;12.50;99.90
57753;DHT22;43583;53.132;6.574;2022-10-30T00:51:29;12.50;99.90
57753;DHT22;43583;53.132;6.574;2022-10-30T00:53:58;12.50;99.90
57753;DHT22;43583;53.132;6.574;2022-10-30T00:56:24;12.50;99.90
57753;DHT22;43583;53.132;6.574;2022-10-30T00:58:54;12.50;99.90
57753;DHT22;43583;53.132;6.574;2022-10-30T01:01:24;12.40;99.90
57753;DHT22;43583;53.132;6.574;2022-10-30T01:03:54;12.40;99.90
57753;DHT22;43583;53.132;6.574;2022-10-30T01:06:22;12.40;99.90
57753;DHT22;43583;53.132;6.574;2022-10-30T01:08:48;12.40;99.90
57753;DHT22;43583;53.132;6.574;2022-10-30T01:11:14;12.30;99.90
57753;DHT22;43583;53.132;6.574;2022-10-30T01:13:42;12.40;99.90
57753;DHT22;43583;53.132;6.574;2022-10-30T01:22:38;12.30;99.90
57753;DHT22;43583;53.132;6.574;2022-10-30T01:31:08;12.30;99.90
57753;DHT22;43583;53.132;6.574;2022-10-30T01:34:38;12.20;99.90
57753;DHT22;43583;53.132;6.574;2022-10-30T01:36:48;12.20;99.90
57753;DHT22;43583;53.132;6.574;2022-10-30T01:39:22;12.20;99.90
57753;DHT22;43583;53.132;6.574;2022-10-30T01:41:49;12.30;99.90
57753;DHT22;43583;53.132;6.574;2022-10-30T01:44:30;12.30;99.90
57753;DHT22;43583;53.132;6.574;2022-10-30T01:47:27;12.30;99.90
57753;DHT22;43583;53.132;6.574;2022-10-30T01:50:14;12.30;99.90
57753;DHT22;43583;53.132;6.574;2022-10-30T01:52:59;12.30;99.90
57753;DHT22;43583;53.132;6.574;2022-10-30T01:55:55;12.30;99.90
57753;DHT22;43583;53.132;6.574;2022-10-30T01:58:27;12.30;99.90
57753;DHT22;43583;53.132;6.574;2022-10-30T02:00:57;12.30;99.90
57753;DHT22;43583;53.132;6.574;2022-10-30T02:03:23;12.30;99.90
57753;DHT22;43583;53.132;6.574;2022-10-30T02:05:51;12.20;99.90
57753;DHT22;43583;53.132;6.574;2022-10-30T02:08:17;12.20;99.90
57753;DHT22;43583;53.132;6.574;2022-10-30T02:10:45;12.20;99.90
57753;DHT22;43583;53.132;6.574;2022-10-30T02:13:12;12.20;99.90
57753;DHT22;43583;53.132;6.574;2022-10-30T02:15:38;12.20;99.90
57753;DHT22;43583;53.132;6.574;2022-10-30T02:18:03;12.20;99.90
57753;DHT22;43583;53.132;6.574;2022-10-30T02:20:29;12.20;99.90
57753;DHT22;43583;53.132;6.574;2022-10-30T02:22:55;12.20;99.90
57753;DHT22;43583;53.132;6.574;2022-10-30T02:25:21;12.20;99.90
57753;DHT22;43583;53.132;6.574;2022-10-30T02:27:46;12.30;99.90
57753;DHT22;43583;53.132;6.574;2022-10-30T02:30:12;12.30;99.90
57753;DHT22;43583;53.132;6.574;2022-10-30T02:32:38;12.30;99.90
57753;DHT22;43583;53.132;6.574;2022-10-30T02:35:04;12.30;99.90
57753;DHT22;43583;53.132;6.574;2022-10-30T02:37:29;12.30;99.90
57753;DHT22;43583;53.132;6.574;2022-10-30T02:39:57;12.40;99.90
57753;DHT22;43583;53.132;6.574;2022-10-30T02:42:23;12.40;99.90
57753;DHT22;43583;53.132;6.574;2022-10-30T02:44:48;12.40;99.90
57753;DHT22;43583;53.132;6.574;2022-10-30T02:47:14;12.40;99.90
57753;DHT22;43583;53.132;6.574;2022-10-30T02:49:39;12.50;99.90
57753;DHT22;43583;53.132;6.574;2022-10-30T02:52:06;12.40;99.90
57753;DHT22;43583;53.132;6.574;2022-10-30T02:54:33;12.40;99.90
57753;DHT22;43583;53.132;6.574;2022-10-30T02:56:59;12.40;99.90
57753;DHT22;43583;53.132;6.574;2022-10-30T02:59:24;12.50;99.90
57753;DHT22;43583;53.132;6.574;2022-10-30T03:01:50;12.50;99.90
57753;DHT22;43583;53.132;6.574;2022-10-30T03:04:15;12.50;99.90
57753;DHT22;43583;53.132;6.574;2022-10-30T03:06:41;12.60;99.90
57753;DHT22;43583;53.132;6.574;2022-10-30T03:09:06;12.50;99.90
57753;DHT22;43583;53.132;6.574;2022-10-30T03:11:33;12.50;99.90
57753;DHT22;43583;53.132;6.574;2022-10-30T03:13:58;12.50;99.90
57753;DHT22;43583;53.132;6.574;2022-10-30T03:16:25;12.50;99.90
57753;DHT22;43583;53.132;6.574;2022-10-30T03:18:54;12.50;99.90
57753;DHT22;43583;53.132;6.574;2022-10-30T03:21:22;12.40;99.90
57753;DHT22;43583;53.132;6.574;2022-10-30T03:23:48;12.40;99.90
57753;DHT22;43583;53.132;6.574;2022-10-30T03:26:17;12.40;99.90
57753;DHT22;43583;53.132;6.574;2022-10-30T03:28:43;12.30;99.90
57753;DHT22;43583;53.132;6.574;2022-10-30T03:31:16;12.30;99.90
57753;DHT22;43583;53.132;6.574;2022-10-30T03:33:42;12.30;99.90
57753;DHT22;43583;53.132;6.574;2022-10-30T03:36:10;12.30;99.90
57753;DHT22;43583;53.132;6.574;2022-10-30T03:38:36;12.30;99.90
57753;DHT22;43583;53.132;6.574;2022-10-30T03:41:03;12.30;99.90
57753;DHT22;43583;53.132;6.574;2022-10-30T03:43:28;12.30;99.90
57753;DHT22;43583;53.132;6.574;2022-10-30T03:45:55;12.30;99.90
57753;DHT22;43583;53.132;6.574;2022-10-30T03:48:23;12.30;99.90
57753;DHT22;43583;53.132;6.574;2022-10-30T03:50:50;12.30;99.90
57753;DHT22;43583;53.132;6.574;2022-10-30T03:53:16;12.30;99.90
57753;DHT22;43583;53.132;6.574;2022-10-30T03:55:42;12.40;99.90
57753;DHT22;43583;53.132;6.574;2022-10-30T03:58:07;12.30;99.90
57753;DHT22;43583;53.132;6.574;2022-10-30T04:00:34;12.40;99.90
57753;DHT22;43583;53.132;6.574;2022-10-30T04:03:00;12.40;99.90
57753;DHT22;43583;53.132;6.574;2022-10-30T04:05:27;12.40;99.90
57753;DHT22;43583;53.132;6.574;2022-10-30T04:07:58;12.30;99.90
57753;DHT22;43583;53.132;6.574;2022-10-30T04:10:24;12.30;99.90
57753;DHT22;43583;53.132;6.574;2022-10-30T04:12:50;12.30;99.90
57753;DHT22;43583;53.132;6.574;2022-10-30T04:15:16;12.30;99.90
57753;DHT22;43583;53.132;6.574;2022-10-30T04:17:48;12.30;99.90
57753;DHT22;43583;53.132;6.574;2022-10-30T04:20:14;12.30;99.90
57753;DHT22;43583;53.132;6.574;2022-10-30T04:22:39;12.30;99.90
57753;DHT22;43583;53.132;6.574;2022-10-30T04:25:05;12.20;99.90
57753;DHT22;43583;53.132;6.574;2022-10-30T04:27:31;12.20;99.90
57753;DHT22;43583;53.132;6.574;2022-10-30T04:29:56;12.20;99.90
57753;DHT22;43583;53.132;6.574;2022-10-30T04:32:22;12.20;99.90
57753;DHT22;43583;53.132;6.574;2022-10-30T04:34:47;12.20;99.90
57753;DHT22;43583;53.132;6.574;2022-10-30T04:37:15;12.20;99.90
57753;DHT22;43583;53.132;6.574;2022-10-30T04:39:40;12.10;99.90
57753;DHT22;43583;53.132;6.574;2022-10-30T04:42:06;12.10;99.90
57753;DHT22;43583;53.132;6.574;2022-10-30T04:44:31;12.10;99.90
57753;DHT22;43583;53.132;6.574;2022-10-30T04:46:57;12.10;99.90
57753;DHT22;43583;53.132;6.574;2022-10-30T04:49:22;12.10;99.90
57753;DHT22;43583;53.132;6.574;2022-10-30T04:51:48;12.10;99.90
57753;DHT22;43583;53.132;6.574;2022-10-30T04:54:13;12.00;99.90
57753;DHT22;43583;53.132;6.574;2022-10-30T04:56:39;12.00;99.90
57753;DHT22;43583;53.132;6.574;2022-10-30T04:59:04;12.00;99.90
57753;DHT22;43583;53.132;6.574;2022-10-30T05:01:30;12.00;99.90
57753;DHT22;43583;53.132;6.574;2022-10-30T05:03:55;11.90;99.90
57753;DHT22;43583;53.132;6.574;2022-10-30T05:06:27;11.90;99.90
57753;DHT22;43583;53.132;6.574;2022-10-30T05:08:54;11.90;99.90
57753;DHT22;43583;53.132;6.574;2022-10-30T05:11:20;11.90;99.90
57753;DHT22;43583;53.132;6.574;2022-10-30T05:13:47;11.90;99.90
57753;DHT22;43583;53.132;6.574;2022-10-30T05:16:12;11.90;99.90
57753;DHT22;43583;53.132;6.574;2022-10-30T05:18:38;11.90;99.90
57753;DHT22;43583;53.132;6.574;2022-10-30T05:21:03;11.90;99.90
57753;DHT22;43583;53.132;6.574;2022-10-30T05:23:29;11.90;99.90
57753;DHT22;43583;53.132;6.574;2022-10-30T05:25:54;11.90;99.90
57753;DHT22;43583;53.132;6.574;2022-10-30T05:28:20;11.90;99.90
57753;DHT22;43583;53.132;6.574;2022-10-30T05:30:45;11.90;99.90
57753;DHT22;43583;53.132;6.574;2022-10-30T05:33:12;11.80;99.90
57753;DHT22;43583;53.132;6.574;2022-10-30T05:35:41;11.70;99.90
57753;DHT22;43583;53.132;6.574;2022-10-30T05:38:07;11.70;99.90
57753;DHT22;43583;53.132;6.574;2022-10-30T05:40:33;11.60;99.90
57753;DHT22;43583;53.132;6.574;2022-10-30T05:42:59;11.70;99.90
57753;DHT22;43583;53.132;6.574;2022-10-30T05:45:25;11.60;99.90
57753;DHT22;43583;53.132;6.574;2022-10-30T05:47:59;11.50;99.90
57753;DHT22;43583;53.132;6.574;2022-10-30T05:50:26;11.50;99.90
57753;DHT22;43583;53.132;6.574;2022-10-30T05:53:02;11.50;99.90
57753;DHT22;43583;53.132;6.574;2022-10-30T05:55:28;11.40;99.90
57753;DHT22;43583;53.132;6.574;2022-10-30T05:58:04;11.40;99.90
57753;DHT22;43583;53.132;6.574;2022-10-30T06:00:32;11.40;99.90
57753;DHT22;43583;53.132;6.574;2022-10-30T06:03:04;11.30;99.90
57753;DHT22;43583;53.132;6.574;2022-10-30T06:05:31;11.30;99.90
57753;DHT22;43583;53.132;6.574;2022-10-30T06:07:57;11.30;99.90
57753;DHT22;43583;53.132;6.574;2022-10-30T06:10:23;11.30;99.90
57753;DHT22;43583;53.132;6.574;2022-10-30T06:12:53;11.30;99.90
57753;DHT22;43583;53.132;6.574;2022-10-30T06:15:19;11.20;99.90
57753;DHT22;43583;53.132;6.574;2022-10-30T06:17:45;11.20;99.90
57753;DHT22;43583;53.132;6.574;2022-10-30T06:20:10;11.30;99.90
57753;DHT22;43583;53.132;6.574;2022-10-30T06:22:36;11.20;99.90
57753;DHT22;43583;53.132;6.574;2022-10-30T06:25:02;11.20;99.90
57753;DHT22;43583;53.132;6.574;2022-10-30T06:27:27;11.30;99.90
57753;DHT22;43583;53.132;6.574;2022-10-30T06:29:53;11.30;99.90
57753;DHT22;43583;53.132;6.574;2022-10-30T06:32:19;11.30;99.90
57753;DHT22;43583;53.132;6.574;2022-10-30T06:34:45;11.30;99.90
57753;DHT22;43583;53.132;6.574;2022-10-30T06:37:10;11.40;99.90
57753;DHT22;43583;53.132;6.574;2022-10-30T06:39:36;11.30;99.90
57753;DHT22;43583;53.132;6.574;2022-10-30T06:42:02;11.30;99.90
57753;DHT22;43583;53.132;6.574;2022-10-30T06:44:27;11.30;99.90
57753;DHT22;43583;53.132;6.574;2022-10-30T06:46:53;11.20;99.90
57753;DHT22;43583;53.132;6.574;2022-10-30T06:49:19;11.20;99.90
57753;DHT22;43583;53.132;6.574;2022-10-30T06:51:45;11.20;99.90
57753;DHT22;43583;53.132;6.574;2022-10-30T06:54:11;11.30;99.90
57753;DHT22;43583;53.132;6.574;2022-10-30T06:56:37;11.40;99.90
57753;DHT22;43583;53.132;6.574;2022-10-30T06:59:02;11.50;99.90
57753;DHT22;43583;53.132;6.574;2022-10-30T07:01:28;11.60;99.90
57753;DHT22;43583;53.132;6.574;2022-10-30T07:03:53;11.60;99.90
57753;DHT22;43583;53.132;6.574;2022-10-30T07:06:19;11.70;99.90
57753;DHT22;43583;53.132;6.574;2022-10-30T07:08:45;11.80;99.90
57753;DHT22;43583;53.132;6.574;2022-10-30T07:11:11;11.90;99.90
57753;DHT22;43583;53.132;6.574;2022-10-30T07:13:36;12.00;99.90
57753;DHT22;43583;53.132;6.574;2022-10-30T07:16:02;12.10;99.90
57753;DHT22;43583;53.132;6.574;2022-10-30T07:18:27;12.10;99.90
57753;DHT22;43583;53.132;6.574;2022-10-30T07:20:56;12.20;99.90
57753;DHT22;43583;53.132;6.574;2022-10-30T07:23:22;12.30;99.90
57753;DHT22;43583;53.132;6.574;2022-10-30T07:25:48;12.40;99.90
57753;DHT22;43583;53.132;6.574;2022-10-30T07:28:13;12.40;99.90
57753;DHT22;43583;53.132;6.574;2022-10-30T07:30:39;12.50;99.90
57753;DHT22;43583;53.132;6.574;2022-10-30T07:33:05;12.50;99.90
57753;DHT22;43583;53.132;6.574;2022-10-30T07:35:33;12.60;99.90
57753;DHT22;43583;53.132;6.574;2022-10-30T07:38:09;12.70;99.90
57753;DHT22;43583;53.132;6.574;2022-10-30T07:40:34;12.70;99.90
57753;DHT22;43583;53.132;6.574;2022-10-30T07:43:01;12.80;99.90
57753;DHT22;43583;53.132;6.574;2022-10-30T07:45:27;12.90;99.90
57753;DHT22;43583;53.132;6.574;2022-10-30T07:47:53;12.90;99.90
57753;DHT22;43583;53.132;6.574;2022-10-30T07:50:19;13.00;99.90
57753;DHT22;43583;53.132;6.574;2022-10-30T07:52:45;13.10;99.90
57753;DHT22;43583;53.132;6.574;2022-10-30T07:55:11;13.20;99.90
57753;DHT22;43583;53.132;6.574;2022-10-30T07:57:38;13.20;99.90
57753;DHT22;43583;53.132;6.574;2022-10-30T08:00:06;13.30;99.90
57753;DHT22;43583;53.132;6.574;2022-10-30T08:02:32;13.40;99.90
57753;DHT22;43583;53.132;6.574;2022-10-30T08:04:57;13.50;99.90
57753;DHT22;43583;53.132;6.574;2022-10-30T08:07:23;13.50;99.90
57753;DHT22;43583;53.132;6.574;2022-10-30T08:09:48;13.60;99.90
57753;DHT22;43583;53.132;6.574;2022-10-30T08:12:14;13.70;99.90
57753;DHT22;43583;53.132;6.574;2022-10-30T08:14:40;13.80;99.90
57753;DHT22;43583;53.132;6.574;2022-10-30T08:17:05;13.90;99.90
57753;DHT22;43583;53.132;6.574;2022-10-30T08:19:34;14.00;99.90
57753;DHT22;43583;53.132;6.574;2022-10-30T08:22:00;14.10;99.90
57753;DHT22;43583;53.132;6.574;2022-10-30T08:24:26;14.20;99.90
57753;DHT22;43583;53.132;6.574;2022-10-30T08:26:52;14.30;99.90
57753;DHT22;43583;53.132;6.574;2022-10-30T08:29:17;14.40;99.90
57753;DHT22;43583;53.132;6.574;2022-10-30T08:31:43;14.80;99.90
57753;DHT22;43583;53.132;6.574;2022-10-30T08:34:08;15.50;99.90
57753;DHT22;43583;53.132;6.574;2022-10-30T08:36:34;16.40;99.90
57753;DHT22;43583;53.132;6.574;2022-10-30T08:38:59;17.20;99.90
57753;DHT22;43583;53.132;6.574;2022-10-30T08:41:25;18.00;99.90
57753;DHT22;43583;53.132;6.574;2022-10-30T08:43:51;18.50;99.90
57753;DHT22;43583;53.132;6.574;2022-10-30T08:46:16;19.00;99.90
57753;DHT22;43583;53.132;6.574;2022-10-30T08:48:42;19.60;99.90
57753;DHT22;43583;53.132;6.574;2022-10-30T08:51:07;20.10;99.90
57753;DHT22;43583;53.132;6.574;2022-10-30T08:53:33;20.40;99.90
57753;DHT22;43583;53.132;6.574;2022-10-30T08:55:58;20.50;99.90
57753;DHT22;43583;53.132;6.574;2022-10-30T08:58:24;20.70;99.90
57753;DHT22;43583;53.132;6.574;2022-10-30T09:00:49;20.90;99.90
57753;DHT22;43583;53.132;6.574;2022-10-30T09:03:15;21.00;99.90
57753;DHT22;43583;53.132;6.574;2022-10-30T09:05:40;21.00;99.90
57753;DHT22;43583;53.132;6.574;2022-10-30T09:08:06;21.00;99.90
57753;DHT22;43583;53.132;6.574;2022-10-30T09:10:32;21.00;99.90
57753;DHT22;43583;53.132;6.574;2022-10-30T09:12:58;20.80;99.90
57753;DHT22;43583;53.132;6.574;2022-10-30T09:15:25;20.70;99.90
57753;DHT22;43583;53.132;6.574;2022-10-30T09:17:58;20.60;99.90
57753;DHT22;43583;53.132;6.574;2022-10-30T09:20:24;20.50;99.90
57753;DHT22;43583;53.132;6.574;2022-10-30T09:22:50;20.20;99.90
57753;DHT22;43583;53.132;6.574;2022-10-30T09:25:16;20.00;99.90
57753;DHT22;43583;53.132;6.574;2022-10-30T09:27:41;19.90;99.90
57753;DHT22;43583;53.132;6.574;2022-10-30T09:30:07;19.70;99.90
57753;DHT22;43583;53.132;6.574;2022-10-30T09:32:33;19.60;99.90
57753;DHT22;43583;53.132;6.574;2022-10-30T09:34:59;19.40;99.90
57753;DHT22;43583;53.132;6.574;2022-10-30T09:37:24;19.30;99.90
57753;DHT22;43583;53.132;6.574;2022-10-30T09:39:51;19.20;99.90
57753;DHT22;43583;53.132;6.574;2022-10-30T09:42:52;19.10;99.90
57753;DHT22;43583;53.132;6.574;2022-10-30T09:48:48;19.10;99.90
57753;DHT22;43583;53.132;6.574;2022-10-30T09:51:37;19.10;99.90
57753;DHT22;43583;53.132;6.574;2022-10-30T09:54:17;19.10;99.90
57753;DHT22;43583;53.132;6.574;2022-10-30T09:56:50;19.10;99.90
57753;DHT22;43583;53.132;6.574;2022-10-30T09:59:38;19.00;99.90
57753;DHT22;43583;53.132;6.574;2022-10-30T10:02:29;18.90;99.90
57753;DHT22;43583;53.132;6.574;2022-10-30T10:05:20;18.90;99.90
57753;DHT22;43583;53.132;6.574;2022-10-30T10:07:53;18.90;99.90
57753;DHT22;43583;53.132;6.574;2022-10-30T10:10:38;18.90;99.90
57753;DHT22;43583;53.132;6.574;2022-10-30T10:13:05;18.90;99.90
57753;DHT22;43583;53.132;6.574;2022-10-30T10:15:44;18.90;99.90
57753;DHT22;43583;53.132;6.574;2022-10-30T10:18:16;18.90;99.90
57753;DHT22;43583;53.132;6.574;2022-10-30T10:20:46;19.00;99.90
57753;DHT22;43583;53.132;6.574;2022-10-30T10:23:16;19.00;99.90
57753;DHT22;43583;53.132;6.574;2022-10-30T10:25:52;19.10;99.90
57753;DHT22;43583;53.132;6.574;2022-10-30T10:28:42;19.20;99.90
57753;DHT22;43583;53.132;6.574;2022-10-30T10:31:42;19.20;99.90
57753;DHT22;43583;53.132;6.574;2022-10-30T10:37:33;19.30;99.90
57753;DHT22;43583;53.132;6.574;2022-10-30T10:45:43;19.40;99.90
57753;DHT22;43583;53.132;6.574;2022-10-30T10:51:36;19.50;99.90
57753;DHT22;43583;53.132;6.574;2022-10-30T10:56:38;19.30;99.90
57753;DHT22;43583;53.132;6.574;2022-10-30T10:59:12;19.20;99.90
57753;DHT22;43583;53.132;6.574;2022-10-30T11:01:44;19.30;99.90
57753;DHT22;43583;53.132;6.574;2022-10-30T11:06:48;19.50;99.90
57753;DHT22;43583;53.132;6.574;2022-10-30T11:09:20;19.60;99.90
57753;DHT22;43583;53.132;6.574;2022-10-30T11:11:47;19.70;99.90
57753;DHT22;43583;53.132;6.574;2022-10-30T11:14:16;19.80;99.90
57753;DHT22;43583;53.132;6.574;2022-10-30T11:19:35;20.10;99.90
57753;DHT22;43583;53.132;6.574;2022-10-30T11:22:01;20.20;99.90
57753;DHT22;43583;53.132;6.574;2022-10-30T11:24:32;20.20;99.90
57753;DHT22;43583;53.132;6.574;2022-10-30T11:29:48;20.30;99.90
57753;DHT22;43583;53.132;6.574;2022-10-30T11:32:18;20.30;99.90
57753;DHT22;43583;53.132;6.574;2022-10-30T11:35:18;20.40;99.90
57753;DHT22;43583;53.132;6.574;2022-10-30T11:37:46;20.30;99.90
57753;DHT22;43583;53.132;6.574;2022-10-30T11:45:36;20.30;99.90
57753;DHT22;43583;53.132;6.574;2022-10-30T11:48:19;20.30;99.90
57753;DHT22;43583;53.132;6.574;2022-10-30T11:50:47;20.30;99.90
57753;DHT22;43583;53.132;6.574;2022-10-30T11:53:35;20.30;99.90
57753;DHT22;43583;53.132;6.574;2022-10-30T11:56:13;20.20;99.90
57753;DHT22;43583;53.132;6.574;2022-10-30T11:58:43;20.20;99.90
57753;DHT22;43583;53.132;6.574;2022-10-30T12:01:31;20.10;99.90
57753;DHT22;43583;53.132;6.574;2022-10-30T12:06:40;20.20;99.90
57753;DHT22;43583;53.132;6.574;2022-10-30T12:09:22;20.20;99.90
57753;DHT22;43583;53.132;6.574;2022-10-30T12:11:48;20.30;99.90
57753;DHT22;43583;53.132;6.574;2022-10-30T12:14:25;20.40;99.90
57753;DHT22;43583;53.132;6.574;2022-10-30T12:16:54;20.50;99.90
57753;DHT22;43583;53.132;6.574;2022-10-30T12:19:22;20.60;99.90
57753;DHT22;43583;53.132;6.574;2022-10-30T12:21:51;20.60;99.90
57753;DHT22;43583;53.132;6.574;2022-10-30T12:26:53;20.50;99.90
57753;DHT22;43583;53.132;6.574;2022-10-30T12:29:22;20.50;99.90
57753;DHT22;43583;53.132;6.574;2022-10-30T12:31:54;20.40;99.90
57753;DHT22;43583;53.132;6.574;2022-10-30T12:37:35;20.30;99.90
57753;DHT22;43583;53.132;6.574;2022-10-30T12:42:39;20.30;99.90
57753;DHT22;43583;53.132;6.574;2022-10-30T12:45:14;20.30;99.90
57753;DHT22;43583;53.132;6.574;2022-10-30T12:47:51;20.30;99.90
57753;DHT22;43583;53.132;6.574;2022-10-30T12:50:26;20.20;99.90
57753;DHT22;43583;53.132;6.574;2022-10-30T12:53:01;20.20;99.90
57753;DHT22;43583;53.132;6.574;2022-10-30T12:58:30;20.10;99.90
57753;DHT22;43583;53.132;6.574;2022-10-30T13:01:00;20.10;99.90
57753;DHT22;43583;53.132;6.574;2022-10-30T13:03:33;20.10;99.90
57753;DHT22;43583;53.132;6.574;2022-10-30T13:06:15;20.10;99.90
57753;DHT22;43583;53.132;6.574;2022-10-30T13:09:08;20.10;99.90
57753;DHT22;43583;53.132;6.574;2022-10-30T13:12:13;20.20;99.90
57753;DHT22;43583;53.132;6.574;2022-10-30T13:14:59;20.20;99.90
57753;DHT22;43583;53.132;6.574;2022-10-30T13:17:26;20.10;99.90
57753;DHT22;43583;53.132;6.574;2022-10-30T13:19:53;20.10;99.90
57753;DHT22;43583;53.132;6.574;2022-10-30T13:22:27;20.10;99.90
57753;DHT22;43583;53.132;6.574;2022-10-30T13:25:11;20.10;99.90
57753;DHT22;43583;53.132;6.574;2022-10-30T13:30:20;20.10;99.90
57753;DHT22;43583;53.132;6.574;2022-10-30T13:40:59;20.00;99.90
57753;DHT22;43583;53.132;6.574;2022-10-30T13:43:51;20.00;99.90
57753;DHT22;43583;53.132;6.574;2022-10-30T13:46:32;20.00;99.90
57753;DHT22;43583;53.132;6.574;2022-10-30T13:49:08;19.90;99.90
57753;DHT22;43583;53.132;6.574;2022-10-30T13:51:43;19.90;99.90
57753;DHT22;43583;53.132;6.574;2022-10-30T13:54:17;19.80;99.90
57753;DHT22;43583;53.132;6.574;2022-10-30T13:56:44;19.80;99.90
57753;DHT22;43583;53.132;6.574;2022-10-30T13:59:38;19.70;99.90
57753;DHT22;43583;53.132;6.574;2022-10-30T14:02:18;19.70;99.90
57753;DHT22;43583;53.132;6.574;2022-10-30T14:05:00;19.70;99.90
57753;DHT22;43583;53.132;6.574;2022-10-30T14:07:46;19.60;99.90
57753;DHT22;43583;53.132;6.574;2022-10-30T14:13:22;19.60;99.90
57753;DHT22;43583;53.132;6.574;2022-10-30T14:16:05;19.60;99.90
57753;DHT22;43583;53.132;6.574;2022-10-30T14:18:45;19.60;99.90
57753;DHT22;43583;53.132;6.574;2022-10-30T14:24:32;19.50;99.90
57753;DHT22;43583;53.132;6.574;2022-10-30T14:32:00;19.40;99.90
57753;DHT22;43583;53.132;6.574;2022-10-30T14:34:43;19.40;99.90
57753;DHT22;43583;53.132;6.574;2022-10-30T14:37:09;19.30;99.90
57753;DHT22;43583;53.132;6.574;2022-10-30T14:39:39;19.30;99.90
57753;DHT22;43583;53.132;6.574;2022-10-30T14:42:29;19.20;99.90
57753;DHT22;43583;53.132;6.574;2022-10-30T14:53:21;19.10;99.90
57753;DHT22;43583;53.132;6.574;2022-10-30T14:56:17;19.00;99.90
57753;DHT22;43583;53.132;6.574;2022-10-30T15:07:48;18.70;99.90
57753;DHT22;43583;53.132;6.574;2022-10-30T15:10:24;18.60;99.90
57753;DHT22;43583;53.132;6.574;2022-10-30T15:13:20;18.60;99.90
57753;DHT22;43583;53.132;6.574;2022-10-30T15:15:57;18.50;99.90
57753;DHT22;43583;53.132;6.574;2022-10-30T15:18:23;18.40;99.90
57753;DHT22;43583;53.132;6.574;2022-10-30T15:20:51;18.30;99.90
57753;DHT22;43583;53.132;6.574;2022-10-30T15:23:28;18.20;99.90
57753;DHT22;43583;53.132;6.574;2022-10-30T15:25:57;18.10;99.90
57753;DHT22;43583;53.132;6.574;2022-10-30T15:28:27;18.00;99.90
57753;DHT22;43583;53.132;6.574;2022-10-30T15:31:03;17.90;99.90
57753;DHT22;43583;53.132;6.574;2022-10-30T15:33:30;17.70;99.90
57753;DHT22;43583;53.132;6.574;2022-10-30T15:35:57;17.60;99.90
57753;DHT22;43583;53.132;6.574;2022-10-30T15:38:23;17.50;99.90
57753;DHT22;43583;53.132;6.574;2022-10-30T15:40:49;17.40;99.90
57753;DHT22;43583;53.132;6.574;2022-10-30T15:43:16;17.30;99.90
57753;DHT22;43583;53.132;6.574;2022-10-30T15:45:44;17.20;99.90
57753;DHT22;43583;53.132;6.574;2022-10-30T15:48:28;17.10;99.90
57753;DHT22;43583;53.132;6.574;2022-10-30T15:53:55;16.80;99.90
57753;DHT22;43583;53.132;6.574;2022-10-30T15:56:33;16.70;99.90
57753;DHT22;43583;53.132;6.574;2022-10-30T15:59:02;16.60;99.90
57753;DHT22;43583;53.132;6.574;2022-10-30T16:01:34;16.50;99.90
57753;DHT22;43583;53.132;6.574;2022-10-30T16:04:03;16.40;99.90
57753;DHT22;43583;53.132;6.574;2022-10-30T16:06:37;16.30;99.90
57753;DHT22;43583;53.132;6.574;2022-10-30T16:09:03;16.20;99.90
57753;DHT22;43583;53.132;6.574;2022-10-30T16:11:28;16.10;99.90
57753;DHT22;43583;53.132;6.574;2022-10-30T16:13:55;16.00;99.90
57753;DHT22;43583;53.132;6.574;2022-10-30T16:16:28;15.90;99.90
57753;DHT22;43583;53.132;6.574;2022-10-30T16:18:59;15.80;99.90
57753;DHT22;43583;53.132;6.574;2022-10-30T16:21:26;15.70;99.90
57753;DHT22;43583;53.132;6.574;2022-10-30T16:23:57;15.70;99.90
57753;DHT22;43583;53.132;6.574;2022-10-30T16:29:18;15.60;99.90
57753;DHT22;43583;53.132;6.574;2022-10-30T16:31:47;15.60;99.90
57753;DHT22;43583;53.132;6.574;2022-10-30T16:34:34;15.50;99.90
57753;DHT22;43583;53.132;6.574;2022-10-30T16:37:03;15.40;99.90
57753;DHT22;43583;53.132;6.574;2022-10-30T16:39:30;15.40;99.90
57753;DHT22;43583;53.132;6.574;2022-10-30T16:41:57;15.30;99.90
57753;DHT22;43583;53.132;6.574;2022-10-30T16:44:32;15.20;99.90
57753;DHT22;43583;53.132;6.574;2022-10-30T16:47:09;15.10;99.90
57753;DHT22;43583;53.132;6.574;2022-10-30T16:49:55;15.10;99.90
57753;DHT22;43583;53.132;6.574;2022-10-30T16:52:28;15.10;99.90
57753;DHT22;43583;53.132;6.574;2022-10-30T16:55:13;15.00;99.90
57753;DHT22;43583;53.132;6.574;2022-10-30T16:57:44;14.90;99.90
57753;DHT22;43583;53.132;6.574;2022-10-30T17:00:24;14.90;99.90
57753;DHT22;43583;53.132;6.574;2022-10-30T17:02:51;14.90;99.90
57753;DHT22;43583;53.132;6.574;2022-10-30T17:05:28;14.90;99.90
57753;DHT22;43583;53.132;6.574;2022-10-30T17:08:01;14.90;99.90
57753;DHT22;43583;53.132;6.574;2022-10-30T17:10:36;14.90;99.90
57753;DHT22;43583;53.132;6.574;2022-10-30T17:13:29;14.90;99.90
57753;DHT22;43583;53.132;6.574;2022-10-30T17:15:57;14.80;99.90
57753;DHT22;43583;53.132;6.574;2022-10-30T17:18:28;14.90;99.90
57753;DHT22;43583;53.132;6.574;2022-10-30T17:21:09;14.90;99.90
57753;DHT22;43583;53.132;6.574;2022-10-30T17:23:35;14.80;99.90
57753;DHT22;43583;53.132;6.574;2022-10-30T17:26:11;14.80;99.90
57753;DHT22;43583;53.132;6.574;2022-10-30T17:28:38;14.80;99.90
57753;DHT22;43583;53.132;6.574;2022-10-30T17:31:24;14.80;99.90